Aviation Digital Data Service (ADDS)

Output produced by TAFs form (1409 UTC 30 July 2015)
found at http://www.aviationweather.gov/adds/tafs/
 
KMDT 301140Z 3012/3112 VRB04KT P6SM SCT015 BKN045 
     TEMPO 3012/3014 4SM BR BKN015 
     FM301500 27004KT 6SM HZ BKN250 
     FM302000 29008KT P6SM SCT250